sensor_id;sensor_type;location;lat;lon;timestamp;P1;durP1;ratioP1;P2;durP2;ratioP2
2622;SDS011;1321;48.690;9.022;2023-11-18T00:00:22;10.00;;;9.70;;
2622;SDS011;1321;48.690;9.022;2023-11-18T00:02:51;10.23;;;9.87;;
2622;SDS011;1321;48.690;9.022;2023-11-18T00:05:19;10.83;;;10.53;;
2622;SDS011;1321;48.690;9.022;2023-11-18T00:07:48;10.40;;;10.10;;
2622;SDS011;1321;48.690;9.022;2023-11-18T00:10:16;10.07;;;9.77;;
2622;SDS011;1321;48.690;9.022;2023-11-18T00:12:46;10.23;;;9.93;;
2622;SDS011;1321;48.690;9.022;2023-11-18T00:15:14;9.83;;;9.63;;
2622;SDS011;1321;48.690;9.022;2023-11-18T00:17:42;10.00;;;9.80;;
2622;SDS011;1321;48.690;9.022;2023-11-18T00:20:10;10.37;;;10.07;;
2622;SDS011;1321;48.690;9.022;2023-11-18T00:22:40;10.40;;;10.10;;
2622;SDS011;1321;48.690;9.022;2023-11-18T00:25:08;9.80;;;9.60;;
2622;SDS011;1321;48.690;9.022;2023-11-18T00:27:37;9.77;;;9.57;;
2622;SDS011;1321;48.690;9.022;2023-11-18T00:30:07;10.50;;;10.20;;
2622;SDS011;1321;48.690;9.022;2023-11-18T00:32:37;9.50;;;9.30;;
2622;SDS011;1321;48.690;9.022;2023-11-18T00:35:06;10.20;;;9.93;;
2622;SDS011;1321;48.690;9.022;2023-11-18T00:37:37;10.10;;;9.80;;
2622;SDS011;1321;48.690;9.022;2023-11-18T00:40:06;10.10;;;9.80;;
2622;SDS011;1321;48.690;9.022;2023-11-18T00:42:35;9.93;;;9.63;;
2622;SDS011;1321;48.690;9.022;2023-11-18T00:45:03;10.37;;;10.13;;
2622;SDS011;1321;48.690;9.022;2023-11-18T00:47:33;10.07;;;9.77;;
2622;SDS011;1321;48.690;9.022;2023-11-18T00:50:02;10.00;;;9.80;;
2622;SDS011;1321;48.690;9.022;2023-11-18T00:52:34;10.67;;;10.27;;
2622;SDS011;1321;48.690;9.022;2023-11-18T00:55:05;10.67;;;10.27;;
2622;SDS011;1321;48.690;9.022;2023-11-18T00:57:35;12.27;;;11.70;;
2622;SDS011;1321;48.690;9.022;2023-11-18T01:00:06;10.50;;;10.10;;
2622;SDS011;1321;48.690;9.022;2023-11-18T01:02:37;11.27;;;10.73;;
2622;SDS011;1321;48.690;9.022;2023-11-18T01:05:05;10.20;;;9.87;;
2622;SDS011;1321;48.690;9.022;2023-11-18T01:07:37;9.90;;;9.60;;
2622;SDS011;1321;48.690;9.022;2023-11-18T01:10:07;10.70;;;10.30;;
2622;SDS011;1321;48.690;9.022;2023-11-18T01:12:36;10.70;;;10.30;;
2622;SDS011;1321;48.690;9.022;2023-11-18T01:15:05;9.50;;;9.20;;
2622;SDS011;1321;48.690;9.022;2023-11-18T01:17:34;9.50;;;9.30;;
2622;SDS011;1321;48.690;9.022;2023-11-18T01:20:04;9.30;;;9.00;;
2622;SDS011;1321;48.690;9.022;2023-11-18T01:22:36;9.40;;;9.20;;
2622;SDS011;1321;48.690;9.022;2023-11-18T01:25:06;9.40;;;9.20;;
2622;SDS011;1321;48.690;9.022;2023-11-18T01:27:35;9.03;;;8.80;;
2622;SDS011;1321;48.690;9.022;2023-11-18T01:30:04;9.80;;;9.60;;
2622;SDS011;1321;48.690;9.022;2023-11-18T01:32:33;10.73;;;10.40;;
2622;SDS011;1321;48.690;9.022;2023-11-18T01:35:01;9.73;;;9.53;;
2622;SDS011;1321;48.690;9.022;2023-11-18T01:37:32;9.40;;;9.20;;
2622;SDS011;1321;48.690;9.022;2023-11-18T01:40:00;9.07;;;8.87;;
2622;SDS011;1321;48.690;9.022;2023-11-18T01:42:31;9.37;;;9.17;;
2622;SDS011;1321;48.690;9.022;2023-11-18T01:44:59;10.20;;;10.00;;
2622;SDS011;1321;48.690;9.022;2023-11-18T01:47:30;10.73;;;10.43;;
2622;SDS011;1321;48.690;9.022;2023-11-18T01:50:00;10.30;;;10.00;;
2622;SDS011;1321;48.690;9.022;2023-11-18T01:52:33;10.73;;;10.43;;
2622;SDS011;1321;48.690;9.022;2023-11-18T01:55:02;10.47;;;10.17;;
2622;SDS011;1321;48.690;9.022;2023-11-18T01:57:32;10.70;;;10.40;;
2622;SDS011;1321;48.690;9.022;2023-11-18T02:00:01;10.70;;;10.30;;
2622;SDS011;1321;48.690;9.022;2023-11-18T02:02:32;10.37;;;10.00;;
2622;SDS011;1321;48.690;9.022;2023-11-18T02:05:04;10.33;;;10.03;;
2622;SDS011;1321;48.690;9.022;2023-11-18T02:07:35;10.63;;;10.23;;
2622;SDS011;1321;48.690;9.022;2023-11-18T02:10:05;10.07;;;9.80;;
2622;SDS011;1321;48.690;9.022;2023-11-18T02:12:38;11.43;;;10.93;;
2622;SDS011;1321;48.690;9.022;2023-11-18T02:15:12;10.60;;;10.10;;
2622;SDS011;1321;48.690;9.022;2023-11-18T02:17:41;10.60;;;10.30;;
2622;SDS011;1321;48.690;9.022;2023-11-18T02:20:11;10.47;;;10.17;;
2622;SDS011;1321;48.690;9.022;2023-11-18T02:22:44;10.10;;;9.90;;
2622;SDS011;1321;48.690;9.022;2023-11-18T02:25:14;10.87;;;10.57;;
2622;SDS011;1321;48.690;9.022;2023-11-18T02:27:46;10.00;;;9.70;;
2622;SDS011;1321;48.690;9.022;2023-11-18T02:30:14;10.77;;;10.37;;
2622;SDS011;1321;48.690;9.022;2023-11-18T02:32:45;10.13;;;9.90;;
2622;SDS011;1321;48.690;9.022;2023-11-18T02:35:18;10.03;;;9.83;;
2622;SDS011;1321;48.690;9.022;2023-11-18T02:37:52;9.60;;;9.40;;
2622;SDS011;1321;48.690;9.022;2023-11-18T02:40:25;10.73;;;10.17;;
2622;SDS011;1321;48.690;9.022;2023-11-18T02:42:59;10.53;;;10.23;;
2622;SDS011;1321;48.690;9.022;2023-11-18T02:45:31;10.07;;;9.80;;
2622;SDS011;1321;48.690;9.022;2023-11-18T02:48:01;9.60;;;9.40;;
2622;SDS011;1321;48.690;9.022;2023-11-18T02:50:29;9.20;;;9.00;;
2622;SDS011;1321;48.690;9.022;2023-11-18T02:52:58;9.93;;;9.73;;
2622;SDS011;1321;48.690;9.022;2023-11-18T02:55:26;10.23;;;9.83;;
2622;SDS011;1321;48.690;9.022;2023-11-18T02:57:54;9.77;;;9.57;;
2622;SDS011;1321;48.690;9.022;2023-11-18T03:00:24;9.60;;;9.30;;
2622;SDS011;1321;48.690;9.022;2023-11-18T03:02:54;9.50;;;9.27;;
2622;SDS011;1321;48.690;9.022;2023-11-18T03:05:22;10.00;;;9.80;;
2622;SDS011;1321;48.690;9.022;2023-11-18T03:07:52;10.00;;;9.70;;
2622;SDS011;1321;48.690;9.022;2023-11-18T03:10:24;9.70;;;9.50;;
2622;SDS011;1321;48.690;9.022;2023-11-18T03:12:53;9.80;;;9.60;;
2622;SDS011;1321;48.690;9.022;2023-11-18T03:15:21;9.97;;;9.70;;
2622;SDS011;1321;48.690;9.022;2023-11-18T03:17:53;10.43;;;10.17;;
2622;SDS011;1321;48.690;9.022;2023-11-18T03:20:22;9.70;;;9.50;;
2622;SDS011;1321;48.690;9.022;2023-11-18T03:22:52;10.00;;;9.70;;
2622;SDS011;1321;48.690;9.022;2023-11-18T03:25:20;9.80;;;9.60;;
2622;SDS011;1321;48.690;9.022;2023-11-18T03:27:49;10.00;;;9.70;;
2622;SDS011;1321;48.690;9.022;2023-11-18T03:30:17;9.90;;;9.60;;
2622;SDS011;1321;48.690;9.022;2023-11-18T03:32:45;9.83;;;9.63;;
2622;SDS011;1321;48.690;9.022;2023-11-18T03:35:15;10.20;;;10.00;;
2622;SDS011;1321;48.690;9.022;2023-11-18T03:37:43;10.30;;;10.00;;
2622;SDS011;1321;48.690;9.022;2023-11-18T03:40:12;10.17;;;9.87;;
2622;SDS011;1321;48.690;9.022;2023-11-18T03:42:41;9.80;;;9.60;;
2622;SDS011;1321;48.690;9.022;2023-11-18T03:45:12;9.70;;;9.50;;
2622;SDS011;1321;48.690;9.022;2023-11-18T03:47:41;9.97;;;9.70;;
2622;SDS011;1321;48.690;9.022;2023-11-18T03:50:09;10.00;;;9.80;;
2622;SDS011;1321;48.690;9.022;2023-11-18T03:52:41;10.10;;;9.90;;
2622;SDS011;1321;48.690;9.022;2023-11-18T03:55:09;9.87;;;9.67;;
2622;SDS011;1321;48.690;9.022;2023-11-18T03:57:38;9.63;;;9.43;;
2622;SDS011;1321;48.690;9.022;2023-11-18T04:00:07;10.10;;;9.60;;
2622;SDS011;1321;48.690;9.022;2023-11-18T04:02:38;9.63;;;9.43;;
2622;SDS011;1321;48.690;9.022;2023-11-18T04:05:07;10.00;;;9.80;;
2622;SDS011;1321;48.690;9.022;2023-11-18T04:07:36;9.90;;;9.70;;
2622;SDS011;1321;48.690;9.022;2023-11-18T04:10:10;10.20;;;10.00;;
2622;SDS011;1321;48.690;9.022;2023-11-18T04:12:38;10.53;;;10.23;;
2622;SDS011;1321;48.690;9.022;2023-11-18T04:15:06;10.70;;;10.40;;
2622;SDS011;1321;48.690;9.022;2023-11-18T04:17:35;10.10;;;9.90;;
2622;SDS011;1321;48.690;9.022;2023-11-18T04:20:05;10.30;;;10.10;;
2622;SDS011;1321;48.690;9.022;2023-11-18T04:22:38;10.27;;;10.07;;
2622;SDS011;1321;48.690;9.022;2023-11-18T04:25:07;10.00;;;9.80;;
2622;SDS011;1321;48.690;9.022;2023-11-18T04:27:37;9.93;;;9.73;;
2622;SDS011;1321;48.690;9.022;2023-11-18T04:30:10;9.90;;;9.60;;
2622;SDS011;1321;48.690;9.022;2023-11-18T04:32:39;10.00;;;9.70;;
2622;SDS011;1321;48.690;9.022;2023-11-18T04:35:09;10.10;;;9.80;;
2622;SDS011;1321;48.690;9.022;2023-11-18T04:37:39;9.90;;;9.70;;
2622;SDS011;1321;48.690;9.022;2023-11-18T04:40:11;10.43;;;10.23;;
2622;SDS011;1321;48.690;9.022;2023-11-18T04:42:40;10.30;;;10.00;;
2622;SDS011;1321;48.690;9.022;2023-11-18T04:45:08;10.73;;;10.43;;
2622;SDS011;1321;48.690;9.022;2023-11-18T04:47:36;10.30;;;10.10;;
2622;SDS011;1321;48.690;9.022;2023-11-18T04:50:06;10.93;;;10.63;;
2622;SDS011;1321;48.690;9.022;2023-11-18T04:52:36;10.57;;;10.27;;
2622;SDS011;1321;48.690;9.022;2023-11-18T04:55:04;11.33;;;10.93;;
2622;SDS011;1321;48.690;9.022;2023-11-18T04:57:34;11.07;;;10.70;;
2622;SDS011;1321;48.690;9.022;2023-11-18T05:00:06;12.97;;;12.47;;
2622;SDS011;1321;48.690;9.022;2023-11-18T05:02:38;12.07;;;11.67;;
2622;SDS011;1321;48.690;9.022;2023-11-18T05:05:06;11.80;;;11.40;;
2622;SDS011;1321;48.690;9.022;2023-11-18T05:07:35;10.80;;;10.50;;
2622;SDS011;1321;48.690;9.022;2023-11-18T05:10:05;11.20;;;10.80;;
2622;SDS011;1321;48.690;9.022;2023-11-18T05:12:36;11.40;;;11.10;;
2622;SDS011;1321;48.690;9.022;2023-11-18T05:15:05;11.70;;;11.30;;
2622;SDS011;1321;48.690;9.022;2023-11-18T05:17:34;33.00;;;29.50;;
2622;SDS011;1321;48.690;9.022;2023-11-18T05:20:03;17.50;;;16.20;;
2622;SDS011;1321;48.690;9.022;2023-11-18T05:22:35;11.57;;;11.17;;
2622;SDS011;1321;48.690;9.022;2023-11-18T05:25:03;11.90;;;11.50;;
2622;SDS011;1321;48.690;9.022;2023-11-18T05:27:32;11.63;;;11.23;;
2622;SDS011;1321;48.690;9.022;2023-11-18T05:30:02;11.60;;;11.10;;
2622;SDS011;1321;48.690;9.022;2023-11-18T05:32:31;11.77;;;11.40;;
2622;SDS011;1321;48.690;9.022;2023-11-18T05:35:00;12.00;;;11.60;;
2622;SDS011;1321;48.690;9.022;2023-11-18T05:37:28;11.73;;;11.33;;
2622;SDS011;1321;48.690;9.022;2023-11-18T05:40:01;11.50;;;11.20;;
2622;SDS011;1321;48.690;9.022;2023-11-18T05:42:33;11.03;;;10.67;;
2622;SDS011;1321;48.690;9.022;2023-11-18T05:45:07;12.10;;;11.60;;
2622;SDS011;1321;48.690;9.022;2023-11-18T05:47:44;11.10;;;10.80;;
2622;SDS011;1321;48.690;9.022;2023-11-18T05:50:12;11.20;;;10.90;;
2622;SDS011;1321;48.690;9.022;2023-11-18T05:52:41;12.20;;;11.70;;
2622;SDS011;1321;48.690;9.022;2023-11-18T05:55:09;12.03;;;11.57;;
2622;SDS011;1321;48.690;9.022;2023-11-18T05:57:37;12.00;;;11.60;;
2622;SDS011;1321;48.690;9.022;2023-11-18T06:00:07;12.23;;;11.63;;
2622;SDS011;1321;48.690;9.022;2023-11-18T06:02:38;12.23;;;11.73;;
2622;SDS011;1321;48.690;9.022;2023-11-18T06:05:07;11.50;;;11.07;;
2622;SDS011;1321;48.690;9.022;2023-11-18T06:07:36;11.47;;;11.07;;
2622;SDS011;1321;48.690;9.022;2023-11-18T06:10:06;11.10;;;10.80;;
2622;SDS011;1321;48.690;9.022;2023-11-18T06:12:35;11.97;;;11.53;;
2622;SDS011;1321;48.690;9.022;2023-11-18T06:15:08;12.10;;;11.70;;
2622;SDS011;1321;48.690;9.022;2023-11-18T06:17:43;12.67;;;12.17;;
2622;SDS011;1321;48.690;9.022;2023-11-18T06:20:12;13.30;;;12.60;;
2622;SDS011;1321;48.690;9.022;2023-11-18T06:22:40;12.23;;;11.70;;
2622;SDS011;1321;48.690;9.022;2023-11-18T06:25:09;12.70;;;12.10;;
2622;SDS011;1321;48.690;9.022;2023-11-18T06:27:39;13.60;;;13.00;;
2622;SDS011;1321;48.690;9.022;2023-11-18T06:30:09;13.13;;;12.57;;
2622;SDS011;1321;48.690;9.022;2023-11-18T06:32:39;13.30;;;12.70;;
2622;SDS011;1321;48.690;9.022;2023-11-18T06:35:07;13.30;;;12.53;;
2622;SDS011;1321;48.690;9.022;2023-11-18T06:37:35;13.10;;;12.60;;
2622;SDS011;1321;48.690;9.022;2023-11-18T06:40:04;12.93;;;12.30;;
2622;SDS011;1321;48.690;9.022;2023-11-18T06:42:42;13.73;;;13.03;;
2622;SDS011;1321;48.690;9.022;2023-11-18T06:45:14;13.47;;;12.97;;
2622;SDS011;1321;48.690;9.022;2023-11-18T06:47:43;14.63;;;13.50;;
2622;SDS011;1321;48.690;9.022;2023-11-18T06:50:12;13.80;;;13.20;;
2622;SDS011;1321;48.690;9.022;2023-11-18T06:52:42;14.23;;;13.53;;
2622;SDS011;1321;48.690;9.022;2023-11-18T06:55:14;13.70;;;13.03;;
2622;SDS011;1321;48.690;9.022;2023-11-18T06:57:43;13.47;;;12.90;;
2622;SDS011;1321;48.690;9.022;2023-11-18T07:00:11;13.60;;;12.97;;
2622;SDS011;1321;48.690;9.022;2023-11-18T07:02:42;13.40;;;12.80;;
2622;SDS011;1321;48.690;9.022;2023-11-18T07:05:10;13.80;;;13.10;;
2622;SDS011;1321;48.690;9.022;2023-11-18T07:07:38;13.27;;;12.77;;
2622;SDS011;1321;48.690;9.022;2023-11-18T07:10:07;13.57;;;12.87;;
2622;SDS011;1321;48.690;9.022;2023-11-18T07:12:39;13.93;;;13.30;;
2622;SDS011;1321;48.690;9.022;2023-11-18T07:15:07;13.60;;;13.00;;
2622;SDS011;1321;48.690;9.022;2023-11-18T07:17:37;13.27;;;12.77;;
2622;SDS011;1321;48.690;9.022;2023-11-18T07:20:06;15.90;;;13.40;;
2622;SDS011;1321;48.690;9.022;2023-11-18T07:22:39;13.30;;;12.70;;
2622;SDS011;1321;48.690;9.022;2023-11-18T07:25:07;12.97;;;12.40;;
2622;SDS011;1321;48.690;9.022;2023-11-18T07:27:35;12.73;;;12.23;;
2622;SDS011;1321;48.690;9.022;2023-11-18T07:30:04;14.30;;;13.23;;
2622;SDS011;1321;48.690;9.022;2023-11-18T07:32:36;13.57;;;12.97;;
2622;SDS011;1321;48.690;9.022;2023-11-18T07:35:05;13.50;;;12.60;;
2622;SDS011;1321;48.690;9.022;2023-11-18T07:37:36;12.77;;;12.17;;
2622;SDS011;1321;48.690;9.022;2023-11-18T07:40:05;13.13;;;12.53;;
2622;SDS011;1321;48.690;9.022;2023-11-18T07:42:33;12.53;;;12.03;;
2622;SDS011;1321;48.690;9.022;2023-11-18T07:45:02;12.83;;;12.23;;
2622;SDS011;1321;48.690;9.022;2023-11-18T07:47:30;12.47;;;11.97;;
2622;SDS011;1321;48.690;9.022;2023-11-18T07:49:59;13.50;;;12.80;;
2622;SDS011;1321;48.690;9.022;2023-11-18T07:52:32;13.50;;;12.60;;
2622;SDS011;1321;48.690;9.022;2023-11-18T07:55:01;12.90;;;12.37;;
2622;SDS011;1321;48.690;9.022;2023-11-18T07:57:30;12.70;;;12.20;;
2622;SDS011;1321;48.690;9.022;2023-11-18T08:00:02;13.00;;;12.40;;
2622;SDS011;1321;48.690;9.022;2023-11-18T08:02:36;13.50;;;13.00;;
2622;SDS011;1321;48.690;9.022;2023-11-18T08:05:04;13.27;;;12.73;;
2622;SDS011;1321;48.690;9.022;2023-11-18T08:07:36;12.10;;;11.60;;
2622;SDS011;1321;48.690;9.022;2023-11-18T08:10:04;13.20;;;12.70;;
2622;SDS011;1321;48.690;9.022;2023-11-18T08:12:39;12.87;;;12.37;;
2622;SDS011;1321;48.690;9.022;2023-11-18T08:15:07;11.97;;;11.57;;
2622;SDS011;1321;48.690;9.022;2023-11-18T08:17:36;12.70;;;11.97;;
2622;SDS011;1321;48.690;9.022;2023-11-18T08:20:05;13.47;;;12.77;;
2622;SDS011;1321;48.690;9.022;2023-11-18T08:22:42;11.83;;;11.43;;
2622;SDS011;1321;48.690;9.022;2023-11-18T08:25:12;12.03;;;11.63;;
2622;SDS011;1321;48.690;9.022;2023-11-18T08:27:41;10.80;;;10.50;;
2622;SDS011;1321;48.690;9.022;2023-11-18T08:30:10;11.20;;;10.83;;
2622;SDS011;1321;48.690;9.022;2023-11-18T08:32:39;11.93;;;11.30;;
2622;SDS011;1321;48.690;9.022;2023-11-18T08:35:10;11.30;;;10.90;;
2622;SDS011;1321;48.690;9.022;2023-11-18T08:37:42;11.43;;;11.03;;
2622;SDS011;1321;48.690;9.022;2023-11-18T08:40:11;11.17;;;10.77;;
2622;SDS011;1321;48.690;9.022;2023-11-18T08:42:42;10.97;;;10.67;;
2622;SDS011;1321;48.690;9.022;2023-11-18T08:45:15;11.53;;;11.10;;
2622;SDS011;1321;48.690;9.022;2023-11-18T08:47:45;11.23;;;10.93;;
2622;SDS011;1321;48.690;9.022;2023-11-18T08:50:13;11.00;;;10.50;;
2622;SDS011;1321;48.690;9.022;2023-11-18T08:52:44;10.93;;;10.70;;
2622;SDS011;1321;48.690;9.022;2023-11-18T08:55:14;11.20;;;10.90;;
2622;SDS011;1321;48.690;9.022;2023-11-18T08:57:46;11.90;;;11.40;;
2622;SDS011;1321;48.690;9.022;2023-11-18T09:00:19;11.03;;;10.63;;
2622;SDS011;1321;48.690;9.022;2023-11-18T09:03:01;10.50;;;10.10;;
2622;SDS011;1321;48.690;9.022;2023-11-18T09:05:32;11.27;;;10.87;;
2622;SDS011;1321;48.690;9.022;2023-11-18T09:08:04;10.13;;;9.83;;
2622;SDS011;1321;48.690;9.022;2023-11-18T09:10:32;11.70;;;10.90;;
2622;SDS011;1321;48.690;9.022;2023-11-18T09:13:01;10.60;;;10.13;;
2622;SDS011;1321;48.690;9.022;2023-11-18T09:15:30;10.20;;;9.90;;
2622;SDS011;1321;48.690;9.022;2023-11-18T09:17:58;10.37;;;10.03;;
2622;SDS011;1321;48.690;9.022;2023-11-18T09:20:26;9.90;;;9.70;;
2622;SDS011;1321;48.690;9.022;2023-11-18T09:22:55;10.63;;;10.13;;
2622;SDS011;1321;48.690;9.022;2023-11-18T09:25:26;10.30;;;9.90;;
2622;SDS011;1321;48.690;9.022;2023-11-18T09:27:54;10.33;;;9.93;;
2622;SDS011;1321;48.690;9.022;2023-11-18T09:30:22;10.10;;;9.80;;
2622;SDS011;1321;48.690;9.022;2023-11-18T09:32:50;10.23;;;9.93;;
2622;SDS011;1321;48.690;9.022;2023-11-18T09:35:21;10.17;;;9.87;;
2622;SDS011;1321;48.690;9.022;2023-11-18T09:37:49;10.23;;;10.03;;
2622;SDS011;1321;48.690;9.022;2023-11-18T09:40:19;9.87;;;9.50;;
2622;SDS011;1321;48.690;9.022;2023-11-18T09:42:52;9.77;;;9.47;;
2622;SDS011;1321;48.690;9.022;2023-11-18T09:45:24;9.37;;;9.17;;
2622;SDS011;1321;48.690;9.022;2023-11-18T09:47:52;9.90;;;9.70;;
2622;SDS011;1321;48.690;9.022;2023-11-18T09:50:21;9.53;;;9.33;;
2622;SDS011;1321;48.690;9.022;2023-11-18T09:52:56;10.27;;;9.97;;
2622;SDS011;1321;48.690;9.022;2023-11-18T09:55:33;9.87;;;9.57;;
2622;SDS011;1321;48.690;9.022;2023-11-18T09:58:13;9.37;;;8.83;;
2622;SDS011;1321;48.690;9.022;2023-11-18T10:00:50;8.87;;;8.57;;
2622;SDS011;1321;48.690;9.022;2023-11-18T10:03:28;9.10;;;8.90;;
2622;SDS011;1321;48.690;9.022;2023-11-18T10:05:57;9.63;;;9.33;;
2622;SDS011;1321;48.690;9.022;2023-11-18T10:08:31;8.77;;;8.47;;
2622;SDS011;1321;48.690;9.022;2023-11-18T10:10:59;9.47;;;9.00;;
2622;SDS011;1321;48.690;9.022;2023-11-18T10:13:36;8.83;;;8.63;;
2622;SDS011;1321;48.690;9.022;2023-11-18T10:16:07;8.93;;;8.70;;
2622;SDS011;1321;48.690;9.022;2023-11-18T10:18:37;9.80;;;9.40;;
2622;SDS011;1321;48.690;9.022;2023-11-18T10:21:15;9.23;;;9.03;;
2622;SDS011;1321;48.690;9.022;2023-11-18T10:24:00;8.90;;;8.60;;
2622;SDS011;1321;48.690;9.022;2023-11-18T10:26:28;9.43;;;9.23;;
2622;SDS011;1321;48.690;9.022;2023-11-18T10:29:03;9.30;;;9.10;;
2622;SDS011;1321;48.690;9.022;2023-11-18T10:31:34;9.50;;;9.30;;
2622;SDS011;1321;48.690;9.022;2023-11-18T10:34:03;9.80;;;9.50;;
2622;SDS011;1321;48.690;9.022;2023-11-18T10:36:33;9.10;;;8.90;;
2622;SDS011;1321;48.690;9.022;2023-11-18T10:39:02;9.40;;;9.10;;
2622;SDS011;1321;48.690;9.022;2023-11-18T10:41:40;8.97;;;8.57;;
2622;SDS011;1321;48.690;9.022;2023-11-18T10:44:11;9.77;;;9.13;;
2622;SDS011;1321;48.690;9.022;2023-11-18T10:46:44;8.40;;;8.20;;
2622;SDS011;1321;48.690;9.022;2023-11-18T10:49:20;8.20;;;8.00;;
2622;SDS011;1321;48.690;9.022;2023-11-18T10:51:50;8.63;;;8.33;;
2622;SDS011;1321;48.690;9.022;2023-11-18T10:54:18;8.80;;;8.30;;
2622;SDS011;1321;48.690;9.022;2023-11-18T10:56:47;8.40;;;8.10;;
2622;SDS011;1321;48.690;9.022;2023-11-18T10:59:17;9.50;;;9.13;;
2622;SDS011;1321;48.690;9.022;2023-11-18T11:01:46;9.17;;;8.67;;
2622;SDS011;1321;48.690;9.022;2023-11-18T11:04:16;8.60;;;8.40;;
2622;SDS011;1321;48.690;9.022;2023-11-18T11:06:48;9.30;;;9.10;;
2622;SDS011;1321;48.690;9.022;2023-11-18T11:09:20;8.70;;;8.50;;
2622;SDS011;1321;48.690;9.022;2023-11-18T11:11:54;10.40;;;10.10;;
2622;SDS011;1321;48.690;9.022;2023-11-18T11:14:32;9.10;;;8.80;;
2622;SDS011;1321;48.690;9.022;2023-11-18T11:17:05;9.23;;;9.03;;
2622;SDS011;1321;48.690;9.022;2023-11-18T11:19:40;8.40;;;8.20;;
2622;SDS011;1321;48.690;9.022;2023-11-18T11:22:22;8.97;;;8.67;;
2622;SDS011;1321;48.690;9.022;2023-11-18T11:24:59;8.10;;;7.90;;
2622;SDS011;1321;48.690;9.022;2023-11-18T11:27:40;9.20;;;8.40;;
2622;SDS011;1321;48.690;9.022;2023-11-18T11:30:22;9.90;;;9.70;;
2622;SDS011;1321;48.690;9.022;2023-11-18T11:32:52;10.43;;;10.03;;
2622;SDS011;1321;48.690;9.022;2023-11-18T11:35:26;10.87;;;10.47;;
2622;SDS011;1321;48.690;9.022;2023-11-18T11:37:59;11.50;;;10.90;;
2622;SDS011;1321;48.690;9.022;2023-11-18T11:40:36;10.33;;;9.90;;
2622;SDS011;1321;48.690;9.022;2023-11-18T11:43:06;9.03;;;8.63;;
2622;SDS011;1321;48.690;9.022;2023-11-18T11:45:38;9.10;;;8.90;;
2622;SDS011;1321;48.690;9.022;2023-11-18T11:48:07;8.80;;;8.50;;
2622;SDS011;1321;48.690;9.022;2023-11-18T11:53:45;8.43;;;8.13;;
2622;SDS011;1321;48.690;9.022;2023-11-18T11:56:19;8.00;;;7.80;;
2622;SDS011;1321;48.690;9.022;2023-11-18T11:58:50;9.60;;;9.30;;
2622;SDS011;1321;48.690;9.022;2023-11-18T12:01:26;9.73;;;9.53;;
2622;SDS011;1321;48.690;9.022;2023-11-18T12:03:59;10.10;;;9.60;;
2622;SDS011;1321;48.690;9.022;2023-11-18T12:06:33;9.83;;;9.43;;
2622;SDS011;1321;48.690;9.022;2023-11-18T12:09:08;10.03;;;9.73;;
2622;SDS011;1321;48.690;9.022;2023-11-18T12:11:38;9.57;;;9.30;;
2622;SDS011;1321;48.690;9.022;2023-11-18T12:14:12;10.37;;;10.00;;
2622;SDS011;1321;48.690;9.022;2023-11-18T12:17:01;10.23;;;9.83;;
2622;SDS011;1321;48.690;9.022;2023-11-18T12:19:36;9.97;;;9.67;;
2622;SDS011;1321;48.690;9.022;2023-11-18T12:22:14;9.50;;;9.30;;
2622;SDS011;1321;48.690;9.022;2023-11-18T12:28:09;9.70;;;9.30;;
2622;SDS011;1321;48.690;9.022;2023-11-18T12:30:38;9.90;;;9.60;;
2622;SDS011;1321;48.690;9.022;2023-11-18T12:33:11;10.03;;;9.73;;
2622;SDS011;1321;48.690;9.022;2023-11-18T12:38:57;9.80;;;9.50;;
2622;SDS011;1321;48.690;9.022;2023-11-18T12:41:43;10.00;;;9.60;;
2622;SDS011;1321;48.690;9.022;2023-11-18T12:44:27;9.67;;;9.37;;
2622;SDS011;1321;48.690;9.022;2023-11-18T12:46:59;9.83;;;9.60;;
2622;SDS011;1321;48.690;9.022;2023-11-18T12:49:42;11.00;;;10.70;;
2622;SDS011;1321;48.690;9.022;2023-11-18T12:52:11;10.17;;;9.80;;
2622;SDS011;1321;48.690;9.022;2023-11-18T12:54:41;10.23;;;9.87;;
2622;SDS011;1321;48.690;9.022;2023-11-18T12:57:10;10.67;;;10.27;;
2622;SDS011;1321;48.690;9.022;2023-11-18T12:59:41;10.50;;;10.20;;
2622;SDS011;1321;48.690;9.022;2023-11-18T13:02:10;10.87;;;10.57;;
2622;SDS011;1321;48.690;9.022;2023-11-18T13:04:46;11.20;;;10.90;;
2622;SDS011;1321;48.690;9.022;2023-11-18T13:07:16;11.82;;;11.43;;
2622;SDS011;1321;48.690;9.022;2023-11-18T13:09:45;11.67;;;11.27;;
2622;SDS011;1321;48.690;9.022;2023-11-18T13:12:14;11.98;;;11.57;;
2622;SDS011;1321;48.690;9.022;2023-11-18T13:14:43;11.60;;;11.20;;
2622;SDS011;1321;48.690;9.022;2023-11-18T13:17:13;11.60;;;11.30;;
2622;SDS011;1321;48.690;9.022;2023-11-18T13:19:42;11.10;;;10.80;;
2622;SDS011;1321;48.690;9.022;2023-11-18T13:22:13;11.20;;;10.80;;
2622;SDS011;1321;48.690;9.022;2023-11-18T13:24:45;11.47;;;11.07;;
2622;SDS011;1321;48.690;9.022;2023-11-18T13:27:16;11.37;;;10.87;;
2622;SDS011;1321;48.690;9.022;2023-11-18T13:29:46;11.80;;;11.40;;
2622;SDS011;1321;48.690;9.022;2023-11-18T13:32:17;11.43;;;11.03;;
2622;SDS011;1321;48.690;9.022;2023-11-18T13:34:49;11.40;;;11.10;;
2622;SDS011;1321;48.690;9.022;2023-11-18T13:37:19;11.63;;;11.30;;
2622;SDS011;1321;48.690;9.022;2023-11-18T13:39:53;11.47;;;11.17;;
2622;SDS011;1321;48.690;9.022;2023-11-18T13:42:22;12.30;;;11.80;;
2622;SDS011;1321;48.690;9.022;2023-11-18T13:44:52;11.97;;;11.57;;
2622;SDS011;1321;48.690;9.022;2023-11-18T13:47:21;12.10;;;11.70;;
2622;SDS011;1321;48.690;9.022;2023-11-18T13:49:53;12.47;;;11.87;;
2622;SDS011;1321;48.690;9.022;2023-11-18T13:52:26;13.93;;;12.80;;
2622;SDS011;1321;48.690;9.022;2023-11-18T13:54:57;12.00;;;11.60;;
2622;SDS011;1321;48.690;9.022;2023-11-18T13:57:26;11.40;;;11.10;;
2622;SDS011;1321;48.690;9.022;2023-11-18T13:59:54;12.17;;;11.63;;
2622;SDS011;1321;48.690;9.022;2023-11-18T14:02:23;12.00;;;11.60;;
2622;SDS011;1321;48.690;9.022;2023-11-18T14:04:51;12.90;;;12.20;;
2622;SDS011;1321;48.690;9.022;2023-11-18T14:07:22;12.33;;;11.83;;
2622;SDS011;1321;48.690;9.022;2023-11-18T14:09:52;11.90;;;11.50;;
2622;SDS011;1321;48.690;9.022;2023-11-18T14:12:23;12.87;;;12.33;;
2622;SDS011;1321;48.690;9.022;2023-11-18T14:14:54;12.40;;;11.90;;
2622;SDS011;1321;48.690;9.022;2023-11-18T14:17:22;12.63;;;12.13;;
2622;SDS011;1321;48.690;9.022;2023-11-18T14:19:50;12.17;;;11.87;;
2622;SDS011;1321;48.690;9.022;2023-11-18T14:22:18;12.70;;;12.00;;
2622;SDS011;1321;48.690;9.022;2023-11-18T14:24:47;12.33;;;11.90;;
2622;SDS011;1321;48.690;9.022;2023-11-18T14:27:17;12.60;;;11.90;;
2622;SDS011;1321;48.690;9.022;2023-11-18T14:29:45;12.60;;;12.10;;
2622;SDS011;1321;48.690;9.022;2023-11-18T14:32:14;13.00;;;12.30;;
2622;SDS011;1321;48.690;9.022;2023-11-18T14:34:42;11.83;;;11.30;;
2622;SDS011;1321;48.690;9.022;2023-11-18T14:37:10;12.60;;;12.10;;
2622;SDS011;1321;48.690;9.022;2023-11-18T14:39:38;13.27;;;12.57;;
2622;SDS011;1321;48.690;9.022;2023-11-18T14:42:06;12.90;;;12.40;;
2622;SDS011;1321;48.690;9.022;2023-11-18T14:44:37;12.90;;;12.30;;
2622;SDS011;1321;48.690;9.022;2023-11-18T14:47:05;12.03;;;11.73;;
2622;SDS011;1321;48.690;9.022;2023-11-18T14:49:33;12.63;;;12.00;;
2622;SDS011;1321;48.690;9.022;2023-11-18T14:52:01;13.27;;;12.77;;
2622;SDS011;1321;48.690;9.022;2023-11-18T14:54:30;12.20;;;11.90;;
2622;SDS011;1321;48.690;9.022;2023-11-18T14:57:02;12.80;;;12.17;;
2622;SDS011;1321;48.690;9.022;2023-11-18T14:59:31;12.40;;;12.00;;
2622;SDS011;1321;48.690;9.022;2023-11-18T15:02:01;12.70;;;12.23;;
2622;SDS011;1321;48.690;9.022;2023-11-18T15:04:30;12.50;;;11.90;;
2622;SDS011;1321;48.690;9.022;2023-11-18T15:06:58;11.80;;;11.50;;
2622;SDS011;1321;48.690;9.022;2023-11-18T15:09:26;12.20;;;11.80;;
2622;SDS011;1321;48.690;9.022;2023-11-18T15:11:58;13.43;;;12.70;;
2622;SDS011;1321;48.690;9.022;2023-11-18T15:14:26;12.30;;;11.87;;
2622;SDS011;1321;48.690;9.022;2023-11-18T15:16:55;12.33;;;12.03;;
2622;SDS011;1321;48.690;9.022;2023-11-18T15:19:24;12.50;;;12.17;;
2622;SDS011;1321;48.690;9.022;2023-11-18T15:21:53;13.30;;;12.90;;
2622;SDS011;1321;48.690;9.022;2023-11-18T15:24:21;13.30;;;12.60;;
2622;SDS011;1321;48.690;9.022;2023-11-18T15:26:50;13.40;;;12.67;;